sensor_id;sensor_type;location;lat;lon;timestamp;temperature;humidity
5617;DHT22;2830;50.656;7.568;2023-03-05T00:01:07;3.50;99.90
5617;DHT22;2830;50.656;7.568;2023-03-05T00:03:37;3.50;99.90
5617;DHT22;2830;50.656;7.568;2023-03-05T00:06:04;3.50;99.90
5617;DHT22;2830;50.656;7.568;2023-03-05T00:08:31;3.40;99.90
5617;DHT22;2830;50.656;7.568;2023-03-05T00:11:00;3.30;99.90
5617;DHT22;2830;50.656;7.568;2023-03-05T00:13:28;3.30;99.90
5617;DHT22;2830;50.656;7.568;2023-03-05T00:15:56;3.30;99.90
5617;DHT22;2830;50.656;7.568;2023-03-05T00:18:23;3.30;99.90
5617;DHT22;2830;50.656;7.568;2023-03-05T00:20:56;3.30;99.90
5617;DHT22;2830;50.656;7.568;2023-03-05T00:23:22;3.30;99.90
5617;DHT22;2830;50.656;7.568;2023-03-05T00:25:49;3.30;99.90
5617;DHT22;2830;50.656;7.568;2023-03-05T00:28:16;3.30;99.90
5617;DHT22;2830;50.656;7.568;2023-03-05T00:30:42;3.30;99.90
5617;DHT22;2830;50.656;7.568;2023-03-05T00:33:11;3.30;99.90
5617;DHT22;2830;50.656;7.568;2023-03-05T00:35:39;3.30;99.90
5617;DHT22;2830;50.656;7.568;2023-03-05T00:38:06;3.30;99.90
5617;DHT22;2830;50.656;7.568;2023-03-05T00:40:35;3.30;99.90
5617;DHT22;2830;50.656;7.568;2023-03-05T00:43:03;3.30;99.90
5617;DHT22;2830;50.656;7.568;2023-03-05T00:45:30;3.30;99.90
5617;DHT22;2830;50.656;7.568;2023-03-05T00:47:56;3.20;99.90
5617;DHT22;2830;50.656;7.568;2023-03-05T00:50:23;3.30;99.90
5617;DHT22;2830;50.656;7.568;2023-03-05T00:52:50;3.20;99.90
5617;DHT22;2830;50.656;7.568;2023-03-05T00:55:17;3.20;99.90
5617;DHT22;2830;50.656;7.568;2023-03-05T00:57:44;3.20;99.90
5617;DHT22;2830;50.656;7.568;2023-03-05T01:00:12;3.20;99.90
5617;DHT22;2830;50.656;7.568;2023-03-05T01:02:39;3.30;99.90
5617;DHT22;2830;50.656;7.568;2023-03-05T01:05:14;3.30;99.90
5617;DHT22;2830;50.656;7.568;2023-03-05T01:07:41;3.30;99.90
5617;DHT22;2830;50.656;7.568;2023-03-05T01:10:08;3.30;99.90
5617;DHT22;2830;50.656;7.568;2023-03-05T01:12:35;3.30;99.90
5617;DHT22;2830;50.656;7.568;2023-03-05T01:15:03;3.30;99.90
5617;DHT22;2830;50.656;7.568;2023-03-05T01:17:29;3.30;99.60
5617;DHT22;2830;50.656;7.568;2023-03-05T01:19:56;3.30;99.40
5617;DHT22;2830;50.656;7.568;2023-03-05T01:22:22;3.30;99.30
5617;DHT22;2830;50.656;7.568;2023-03-05T01:24:49;3.30;99.10
5617;DHT22;2830;50.656;7.568;2023-03-05T01:27:16;3.30;98.90
5617;DHT22;2830;50.656;7.568;2023-03-05T01:29:42;3.30;98.70
5617;DHT22;2830;50.656;7.568;2023-03-05T01:32:09;3.30;98.70
5617;DHT22;2830;50.656;7.568;2023-03-05T01:34:36;3.40;98.10
5617;DHT22;2830;50.656;7.568;2023-03-05T01:37:03;3.30;97.80
5617;DHT22;2830;50.656;7.568;2023-03-05T01:39:31;3.30;97.90
5617;DHT22;2830;50.656;7.568;2023-03-05T01:41:57;3.40;97.70
5617;DHT22;2830;50.656;7.568;2023-03-05T01:44:27;3.40;97.60
5617;DHT22;2830;50.656;7.568;2023-03-05T01:46:55;3.30;96.90
5617;DHT22;2830;50.656;7.568;2023-03-05T01:49:27;3.30;97.00
5617;DHT22;2830;50.656;7.568;2023-03-05T01:54:37;3.30;96.90
5617;DHT22;2830;50.656;7.568;2023-03-05T01:57:08;3.30;97.00
5617;DHT22;2830;50.656;7.568;2023-03-05T01:59:37;3.40;97.10
5617;DHT22;2830;50.656;7.568;2023-03-05T02:02:05;3.40;97.30
5617;DHT22;2830;50.656;7.568;2023-03-05T02:04:44;3.40;97.40
5617;DHT22;2830;50.656;7.568;2023-03-05T02:07:11;3.40;97.90
5617;DHT22;2830;50.656;7.568;2023-03-05T02:09:40;3.40;97.70
5617;DHT22;2830;50.656;7.568;2023-03-05T02:12:08;3.40;97.90
5617;DHT22;2830;50.656;7.568;2023-03-05T02:14:36;3.40;97.90
5617;DHT22;2830;50.656;7.568;2023-03-05T02:17:04;3.40;98.00
5617;DHT22;2830;50.656;7.568;2023-03-05T02:19:49;3.40;98.10
5617;DHT22;2830;50.656;7.568;2023-03-05T02:22:17;3.40;98.20
5617;DHT22;2830;50.656;7.568;2023-03-05T02:24:44;3.40;98.30
5617;DHT22;2830;50.656;7.568;2023-03-05T02:27:12;3.30;98.30
5617;DHT22;2830;50.656;7.568;2023-03-05T02:29:41;3.30;98.20
5617;DHT22;2830;50.656;7.568;2023-03-05T02:32:08;3.30;98.30
5617;DHT22;2830;50.656;7.568;2023-03-05T02:34:36;3.30;98.40
5617;DHT22;2830;50.656;7.568;2023-03-05T02:37:03;3.20;98.50
5617;DHT22;2830;50.656;7.568;2023-03-05T02:39:30;3.20;98.90
5617;DHT22;2830;50.656;7.568;2023-03-05T02:41:57;3.20;98.60
5617;DHT22;2830;50.656;7.568;2023-03-05T02:44:24;3.20;98.60
5617;DHT22;2830;50.656;7.568;2023-03-05T02:46:51;3.20;98.70
5617;DHT22;2830;50.656;7.568;2023-03-05T02:49:17;3.20;98.70
5617;DHT22;2830;50.656;7.568;2023-03-05T02:51:44;3.20;98.60
5617;DHT22;2830;50.656;7.568;2023-03-05T02:54:11;3.20;98.70
5617;DHT22;2830;50.656;7.568;2023-03-05T02:56:37;3.20;98.80
5617;DHT22;2830;50.656;7.568;2023-03-05T02:59:05;3.10;98.90
5617;DHT22;2830;50.656;7.568;2023-03-05T03:01:31;3.10;98.90
5617;DHT22;2830;50.656;7.568;2023-03-05T03:03:58;3.10;99.00
5617;DHT22;2830;50.656;7.568;2023-03-05T03:06:25;3.10;99.00
5617;DHT22;2830;50.656;7.568;2023-03-05T03:08:51;3.00;99.00
5617;DHT22;2830;50.656;7.568;2023-03-05T03:11:18;3.10;99.00
5617;DHT22;2830;50.656;7.568;2023-03-05T03:13:46;3.10;99.00
5617;DHT22;2830;50.656;7.568;2023-03-05T03:16:14;3.00;99.00
5617;DHT22;2830;50.656;7.568;2023-03-05T03:18:41;3.10;99.00
5617;DHT22;2830;50.656;7.568;2023-03-05T03:21:18;3.10;99.00
5617;DHT22;2830;50.656;7.568;2023-03-05T03:23:45;3.10;99.00
5617;DHT22;2830;50.656;7.568;2023-03-05T03:26:12;3.10;99.00
5617;DHT22;2830;50.656;7.568;2023-03-05T03:28:39;3.10;99.40
5617;DHT22;2830;50.656;7.568;2023-03-05T03:31:05;3.10;99.00
5617;DHT22;2830;50.656;7.568;2023-03-05T03:33:32;3.10;99.10
5617;DHT22;2830;50.656;7.568;2023-03-05T03:35:59;3.10;99.20
5617;DHT22;2830;50.656;7.568;2023-03-05T03:38:25;3.20;99.10
5617;DHT22;2830;50.656;7.568;2023-03-05T03:40:52;3.20;99.00
5617;DHT22;2830;50.656;7.568;2023-03-05T03:43:19;3.10;98.90
5617;DHT22;2830;50.656;7.568;2023-03-05T03:45:45;3.10;98.90
5617;DHT22;2830;50.656;7.568;2023-03-05T03:48:12;3.10;98.90
5617;DHT22;2830;50.656;7.568;2023-03-05T03:50:40;3.10;98.90
5617;DHT22;2830;50.656;7.568;2023-03-05T03:53:07;3.00;98.90
5617;DHT22;2830;50.656;7.568;2023-03-05T03:55:34;3.10;99.00
5617;DHT22;2830;50.656;7.568;2023-03-05T03:58:01;3.10;98.90
5617;DHT22;2830;50.656;7.568;2023-03-05T04:00:27;3.10;99.00
5617;DHT22;2830;50.656;7.568;2023-03-05T04:02:54;3.10;98.70
5617;DHT22;2830;50.656;7.568;2023-03-05T04:05:21;3.10;98.70
5617;DHT22;2830;50.656;7.568;2023-03-05T04:07:47;3.10;98.70
5617;DHT22;2830;50.656;7.568;2023-03-05T04:10:14;3.10;98.70
5617;DHT22;2830;50.656;7.568;2023-03-05T04:12:40;3.10;98.60
5617;DHT22;2830;50.656;7.568;2023-03-05T04:15:09;3.00;98.30
5617;DHT22;2830;50.656;7.568;2023-03-05T04:17:36;3.00;98.20
5617;DHT22;2830;50.656;7.568;2023-03-05T04:20:04;3.00;98.10
5617;DHT22;2830;50.656;7.568;2023-03-05T04:22:31;3.00;98.20
5617;DHT22;2830;50.656;7.568;2023-03-05T04:24:58;3.00;98.20
5617;DHT22;2830;50.656;7.568;2023-03-05T04:27:24;3.00;97.90
5617;DHT22;2830;50.656;7.568;2023-03-05T04:29:51;3.00;97.80
5617;DHT22;2830;50.656;7.568;2023-03-05T04:32:18;3.00;97.70
5617;DHT22;2830;50.656;7.568;2023-03-05T04:34:48;3.00;97.40
5617;DHT22;2830;50.656;7.568;2023-03-05T04:37:15;3.00;97.40
5617;DHT22;2830;50.656;7.568;2023-03-05T04:39:41;3.00;97.60
5617;DHT22;2830;50.656;7.568;2023-03-05T04:42:09;2.90;97.80
5617;DHT22;2830;50.656;7.568;2023-03-05T04:44:35;3.00;97.90
5617;DHT22;2830;50.656;7.568;2023-03-05T04:47:02;3.00;98.00
5617;DHT22;2830;50.656;7.568;2023-03-05T04:49:29;3.00;98.20
5617;DHT22;2830;50.656;7.568;2023-03-05T04:51:55;3.00;98.20
5617;DHT22;2830;50.656;7.568;2023-03-05T04:54:23;3.00;98.10
5617;DHT22;2830;50.656;7.568;2023-03-05T04:56:50;3.00;98.20
5617;DHT22;2830;50.656;7.568;2023-03-05T04:59:17;3.00;98.30
5617;DHT22;2830;50.656;7.568;2023-03-05T05:01:44;3.00;98.40
5617;DHT22;2830;50.656;7.568;2023-03-05T05:04:11;2.90;98.40
5617;DHT22;2830;50.656;7.568;2023-03-05T05:06:38;2.90;98.60
5617;DHT22;2830;50.656;7.568;2023-03-05T05:09:04;2.90;98.60
5617;DHT22;2830;50.656;7.568;2023-03-05T05:11:31;3.00;98.60
5617;DHT22;2830;50.656;7.568;2023-03-05T05:13:57;3.00;98.70
5617;DHT22;2830;50.656;7.568;2023-03-05T05:16:24;3.00;98.70
5617;DHT22;2830;50.656;7.568;2023-03-05T05:18:51;3.00;98.70
5617;DHT22;2830;50.656;7.568;2023-03-05T05:21:17;3.10;98.70
5617;DHT22;2830;50.656;7.568;2023-03-05T05:23:45;3.00;98.50
5617;DHT22;2830;50.656;7.568;2023-03-05T05:26:12;2.90;98.60
5617;DHT22;2830;50.656;7.568;2023-03-05T05:28:41;2.90;98.70
5617;DHT22;2830;50.656;7.568;2023-03-05T05:31:10;2.80;98.60
5617;DHT22;2830;50.656;7.568;2023-03-05T05:33:37;2.80;98.80
5617;DHT22;2830;50.656;7.568;2023-03-05T05:36:06;2.90;98.80
5617;DHT22;2830;50.656;7.568;2023-03-05T05:38:34;2.90;98.90
5617;DHT22;2830;50.656;7.568;2023-03-05T05:41:05;2.90;98.80
5617;DHT22;2830;50.656;7.568;2023-03-05T05:43:32;2.80;98.70
5617;DHT22;2830;50.656;7.568;2023-03-05T05:46:00;2.80;98.70
5617;DHT22;2830;50.656;7.568;2023-03-05T05:48:30;2.80;98.80
5617;DHT22;2830;50.656;7.568;2023-03-05T05:50:57;2.80;98.80
5617;DHT22;2830;50.656;7.568;2023-03-05T05:53:24;2.90;98.70
5617;DHT22;2830;50.656;7.568;2023-03-05T05:55:51;2.90;98.60
5617;DHT22;2830;50.656;7.568;2023-03-05T05:58:18;2.80;98.60
5617;DHT22;2830;50.656;7.568;2023-03-05T06:00:45;2.80;98.60
5617;DHT22;2830;50.656;7.568;2023-03-05T06:03:11;2.90;98.70
5617;DHT22;2830;50.656;7.568;2023-03-05T06:05:40;2.90;98.70
5617;DHT22;2830;50.656;7.568;2023-03-05T06:08:08;2.90;98.70
5617;DHT22;2830;50.656;7.568;2023-03-05T06:10:34;2.80;98.60
5617;DHT22;2830;50.656;7.568;2023-03-05T06:13:01;2.80;98.60
5617;DHT22;2830;50.656;7.568;2023-03-05T06:15:28;2.90;98.60
5617;DHT22;2830;50.656;7.568;2023-03-05T06:17:54;3.00;98.30
5617;DHT22;2830;50.656;7.568;2023-03-05T06:20:21;3.00;98.10
5617;DHT22;2830;50.656;7.568;2023-03-05T06:22:48;3.00;98.10
5617;DHT22;2830;50.656;7.568;2023-03-05T06:25:15;3.00;97.80
5617;DHT22;2830;50.656;7.568;2023-03-05T06:27:41;3.00;98.00
5617;DHT22;2830;50.656;7.568;2023-03-05T06:30:09;2.90;98.20
5617;DHT22;2830;50.656;7.568;2023-03-05T06:32:37;2.90;98.30
5617;DHT22;2830;50.656;7.568;2023-03-05T06:35:04;2.90;98.20
5617;DHT22;2830;50.656;7.568;2023-03-05T06:37:30;2.90;98.10
5617;DHT22;2830;50.656;7.568;2023-03-05T06:39:57;2.90;98.00
5617;DHT22;2830;50.656;7.568;2023-03-05T06:42:24;2.90;98.10
5617;DHT22;2830;50.656;7.568;2023-03-05T06:44:50;2.90;98.00
5617;DHT22;2830;50.656;7.568;2023-03-05T06:47:17;3.00;97.90
5617;DHT22;2830;50.656;7.568;2023-03-05T06:49:43;2.90;97.80
5617;DHT22;2830;50.656;7.568;2023-03-05T06:52:10;3.00;98.00
5617;DHT22;2830;50.656;7.568;2023-03-05T06:54:38;3.10;97.60
5617;DHT22;2830;50.656;7.568;2023-03-05T06:57:04;3.10;97.60
5617;DHT22;2830;50.656;7.568;2023-03-05T06:59:31;3.10;97.40
5617;DHT22;2830;50.656;7.568;2023-03-05T07:01:59;3.10;97.30
5617;DHT22;2830;50.656;7.568;2023-03-05T07:04:25;3.20;97.10
5617;DHT22;2830;50.656;7.568;2023-03-05T07:06:52;3.20;97.10
5617;DHT22;2830;50.656;7.568;2023-03-05T07:09:19;3.20;96.80
5617;DHT22;2830;50.656;7.568;2023-03-05T07:11:45;3.10;96.80
5617;DHT22;2830;50.656;7.568;2023-03-05T07:14:12;3.10;96.90
5617;DHT22;2830;50.656;7.568;2023-03-05T07:16:39;3.20;97.00
5617;DHT22;2830;50.656;7.568;2023-03-05T07:19:06;3.30;96.90
5617;DHT22;2830;50.656;7.568;2023-03-05T07:21:34;3.30;97.10
5617;DHT22;2830;50.656;7.568;2023-03-05T07:24:05;3.30;97.00
5617;DHT22;2830;50.656;7.568;2023-03-05T07:26:32;3.30;96.80
5617;DHT22;2830;50.656;7.568;2023-03-05T07:28:59;3.30;96.90
5617;DHT22;2830;50.656;7.568;2023-03-05T07:31:27;3.30;96.90
5617;DHT22;2830;50.656;7.568;2023-03-05T07:33:57;3.20;96.70
5617;DHT22;2830;50.656;7.568;2023-03-05T07:36:25;3.20;96.80
5617;DHT22;2830;50.656;7.568;2023-03-05T07:38:53;3.20;96.80
5617;DHT22;2830;50.656;7.568;2023-03-05T07:41:20;3.30;96.40
5617;DHT22;2830;50.656;7.568;2023-03-05T07:43:50;3.30;96.50
5617;DHT22;2830;50.656;7.568;2023-03-05T07:46:19;3.30;96.60
5617;DHT22;2830;50.656;7.568;2023-03-05T07:48:46;3.30;96.60
5617;DHT22;2830;50.656;7.568;2023-03-05T07:51:15;3.30;96.40
5617;DHT22;2830;50.656;7.568;2023-03-05T07:53:44;3.20;96.60
5617;DHT22;2830;50.656;7.568;2023-03-05T07:56:11;3.30;96.60
5617;DHT22;2830;50.656;7.568;2023-03-05T07:58:38;3.30;96.40
5617;DHT22;2830;50.656;7.568;2023-03-05T08:01:10;3.40;96.60
5617;DHT22;2830;50.656;7.568;2023-03-05T08:03:40;3.40;96.40
5617;DHT22;2830;50.656;7.568;2023-03-05T08:06:08;3.40;96.10
5617;DHT22;2830;50.656;7.568;2023-03-05T08:08:35;3.40;96.40
5617;DHT22;2830;50.656;7.568;2023-03-05T08:11:07;3.40;96.60
5617;DHT22;2830;50.656;7.568;2023-03-05T08:13:35;3.50;96.50
5617;DHT22;2830;50.656;7.568;2023-03-05T08:16:06;3.60;96.50
5617;DHT22;2830;50.656;7.568;2023-03-05T08:18:34;3.70;96.60
5617;DHT22;2830;50.656;7.568;2023-03-05T08:21:01;3.70;96.40
5617;DHT22;2830;50.656;7.568;2023-03-05T08:23:28;3.70;96.20
5617;DHT22;2830;50.656;7.568;2023-03-05T08:25:55;3.70;96.10
5617;DHT22;2830;50.656;7.568;2023-03-05T08:28:24;3.70;96.10
5617;DHT22;2830;50.656;7.568;2023-03-05T08:30:51;3.70;96.00
5617;DHT22;2830;50.656;7.568;2023-03-05T08:33:18;3.70;95.80
5617;DHT22;2830;50.656;7.568;2023-03-05T08:35:45;3.70;96.00
5617;DHT22;2830;50.656;7.568;2023-03-05T08:38:11;3.80;96.30
5617;DHT22;2830;50.656;7.568;2023-03-05T08:40:39;3.90;96.00
5617;DHT22;2830;50.656;7.568;2023-03-05T08:43:05;4.00;96.10
5617;DHT22;2830;50.656;7.568;2023-03-05T08:45:32;4.10;95.60
5617;DHT22;2830;50.656;7.568;2023-03-05T08:47:59;4.00;95.80
5617;DHT22;2830;50.656;7.568;2023-03-05T08:50:26;4.00;95.60
5617;DHT22;2830;50.656;7.568;2023-03-05T08:52:52;4.00;95.60
5617;DHT22;2830;50.656;7.568;2023-03-05T08:55:19;4.00;96.00
5617;DHT22;2830;50.656;7.568;2023-03-05T08:57:46;4.10;95.50
5617;DHT22;2830;50.656;7.568;2023-03-05T09:00:13;4.30;95.20
5617;DHT22;2830;50.656;7.568;2023-03-05T09:02:39;4.40;95.00
5617;DHT22;2830;50.656;7.568;2023-03-05T09:05:09;4.60;94.30
5617;DHT22;2830;50.656;7.568;2023-03-05T09:07:35;4.60;94.00
5617;DHT22;2830;50.656;7.568;2023-03-05T09:10:04;4.70;94.20
5617;DHT22;2830;50.656;7.568;2023-03-05T09:12:31;4.90;93.90
5617;DHT22;2830;50.656;7.568;2023-03-05T09:14:58;5.60;94.50
5617;DHT22;2830;50.656;7.568;2023-03-05T09:17:24;6.90;92.40
5617;DHT22;2830;50.656;7.568;2023-03-05T09:19:51;8.00;86.80
5617;DHT22;2830;50.656;7.568;2023-03-05T09:22:18;8.10;84.60
5617;DHT22;2830;50.656;7.568;2023-03-05T09:24:44;8.00;83.00
5617;DHT22;2830;50.656;7.568;2023-03-05T09:27:11;7.50;83.80
5617;DHT22;2830;50.656;7.568;2023-03-05T09:29:38;7.20;86.10
5617;DHT22;2830;50.656;7.568;2023-03-05T09:32:08;6.80;85.50
5617;DHT22;2830;50.656;7.568;2023-03-05T09:34:35;6.50;87.10
5617;DHT22;2830;50.656;7.568;2023-03-05T09:37:02;6.30;86.70
5617;DHT22;2830;50.656;7.568;2023-03-05T09:39:31;6.10;89.10
5617;DHT22;2830;50.656;7.568;2023-03-05T09:45:02;5.70;89.30
5617;DHT22;2830;50.656;7.568;2023-03-05T09:55:51;5.60;89.10
5617;DHT22;2830;50.656;7.568;2023-03-05T09:58:34;5.60;87.50
5617;DHT22;2830;50.656;7.568;2023-03-05T10:01:10;5.40;87.70
5617;DHT22;2830;50.656;7.568;2023-03-05T10:06:36;5.00;88.10
5617;DHT22;2830;50.656;7.568;2023-03-05T10:12:06;4.80;90.20
5617;DHT22;2830;50.656;7.568;2023-03-05T10:14:38;4.80;90.60
5617;DHT22;2830;50.656;7.568;2023-03-05T10:25:14;5.20;90.90
5617;DHT22;2830;50.656;7.568;2023-03-05T10:27:54;5.60;90.00
5617;DHT22;2830;50.656;7.568;2023-03-05T10:31:03;5.70;87.00
5617;DHT22;2830;50.656;7.568;2023-03-05T10:33:50;5.60;86.00
5617;DHT22;2830;50.656;7.568;2023-03-05T10:36:34;5.80;88.20
5617;DHT22;2830;50.656;7.568;2023-03-05T10:42:29;5.90;86.20
5617;DHT22;2830;50.656;7.568;2023-03-05T10:45:05;6.00;85.40
5617;DHT22;2830;50.656;7.568;2023-03-05T10:47:53;6.00;86.00
5617;DHT22;2830;50.656;7.568;2023-03-05T10:50:23;6.10;83.90
5617;DHT22;2830;50.656;7.568;2023-03-05T10:53:06;6.10;83.30
5617;DHT22;2830;50.656;7.568;2023-03-05T10:55:39;6.20;84.30
5617;DHT22;2830;50.656;7.568;2023-03-05T10:58:15;6.10;85.00
5617;DHT22;2830;50.656;7.568;2023-03-05T11:01:03;6.00;83.70
5617;DHT22;2830;50.656;7.568;2023-03-05T11:04:04;5.90;85.90
5617;DHT22;2830;50.656;7.568;2023-03-05T11:06:35;5.90;85.00
5617;DHT22;2830;50.656;7.568;2023-03-05T11:09:21;5.90;85.80
5617;DHT22;2830;50.656;7.568;2023-03-05T11:12:12;5.80;84.60
5617;DHT22;2830;50.656;7.568;2023-03-05T11:14:45;5.80;86.00
5617;DHT22;2830;50.656;7.568;2023-03-05T11:19:54;5.60;87.40
5617;DHT22;2830;50.656;7.568;2023-03-05T11:22:23;5.60;86.40
5617;DHT22;2830;50.656;7.568;2023-03-05T11:25:14;5.60;87.10
5617;DHT22;2830;50.656;7.568;2023-03-05T11:27:53;5.70;86.80
5617;DHT22;2830;50.656;7.568;2023-03-05T11:30:35;5.70;86.20
5617;DHT22;2830;50.656;7.568;2023-03-05T11:33:17;5.70;86.20
5617;DHT22;2830;50.656;7.568;2023-03-05T11:35:47;5.70;87.50
5617;DHT22;2830;50.656;7.568;2023-03-05T11:38:26;5.70;86.30
5617;DHT22;2830;50.656;7.568;2023-03-05T11:40:55;5.80;85.80
5617;DHT22;2830;50.656;7.568;2023-03-05T11:43:23;5.70;87.20
5617;DHT22;2830;50.656;7.568;2023-03-05T11:45:54;5.70;86.70
5617;DHT22;2830;50.656;7.568;2023-03-05T11:48:31;5.60;86.90
5617;DHT22;2830;50.656;7.568;2023-03-05T11:51:02;5.40;87.20
5617;DHT22;2830;50.656;7.568;2023-03-05T11:53:32;5.30;88.40
5617;DHT22;2830;50.656;7.568;2023-03-05T11:56:16;5.30;89.60
5617;DHT22;2830;50.656;7.568;2023-03-05T11:59:05;5.00;89.40
5617;DHT22;2830;50.656;7.568;2023-03-05T12:01:42;5.00;90.30
5617;DHT22;2830;50.656;7.568;2023-03-05T12:04:10;4.80;91.00
5617;DHT22;2830;50.656;7.568;2023-03-05T12:06:42;4.80;91.30
5617;DHT22;2830;50.656;7.568;2023-03-05T12:11:49;4.50;92.70
5617;DHT22;2830;50.656;7.568;2023-03-05T12:14:27;4.40;94.00
5617;DHT22;2830;50.656;7.568;2023-03-05T12:17:27;4.40;93.90
5617;DHT22;2830;50.656;7.568;2023-03-05T12:22:37;4.50;94.10
5617;DHT22;2830;50.656;7.568;2023-03-05T12:27:50;4.60;94.10
5617;DHT22;2830;50.656;7.568;2023-03-05T12:38:55;4.60;94.10
5617;DHT22;2830;50.656;7.568;2023-03-05T12:46:38;4.70;93.70
5617;DHT22;2830;50.656;7.568;2023-03-05T12:51:49;4.80;93.50
5617;DHT22;2830;50.656;7.568;2023-03-05T12:54:32;4.80;93.60
5617;DHT22;2830;50.656;7.568;2023-03-05T12:57:20;4.90;92.90
5617;DHT22;2830;50.656;7.568;2023-03-05T13:00:00;4.80;93.10
5617;DHT22;2830;50.656;7.568;2023-03-05T13:02:34;4.80;93.50
5617;DHT22;2830;50.656;7.568;2023-03-05T13:05:06;4.70;94.00
5617;DHT22;2830;50.656;7.568;2023-03-05T13:07:39;4.60;93.80
5617;DHT22;2830;50.656;7.568;2023-03-05T13:10:19;4.50;93.90
5617;DHT22;2830;50.656;7.568;2023-03-05T13:12:50;4.40;94.40
5617;DHT22;2830;50.656;7.568;2023-03-05T13:15:19;4.40;94.70
5617;DHT22;2830;50.656;7.568;2023-03-05T13:18:00;4.30;94.80
5617;DHT22;2830;50.656;7.568;2023-03-05T13:20:35;4.50;95.30
5617;DHT22;2830;50.656;7.568;2023-03-05T13:25:33;4.80;94.50
5617;DHT22;2830;50.656;7.568;2023-03-05T13:28:11;4.90;94.10
5617;DHT22;2830;50.656;7.568;2023-03-05T13:30:38;5.00;93.20
5617;DHT22;2830;50.656;7.568;2023-03-05T13:33:12;5.30;92.90
5617;DHT22;2830;50.656;7.568;2023-03-05T13:35:44;5.40;92.70
5617;DHT22;2830;50.656;7.568;2023-03-05T13:38:34;5.40;92.60
5617;DHT22;2830;50.656;7.568;2023-03-05T13:41:03;5.30;92.70
5617;DHT22;2830;50.656;7.568;2023-03-05T13:43:30;5.20;92.80
5617;DHT22;2830;50.656;7.568;2023-03-05T13:45:57;5.20;92.70
5617;DHT22;2830;50.656;7.568;2023-03-05T13:48:26;5.30;93.20
5617;DHT22;2830;50.656;7.568;2023-03-05T13:50:57;5.30;92.90
5617;DHT22;2830;50.656;7.568;2023-03-05T13:53:28;5.30;92.60
5617;DHT22;2830;50.656;7.568;2023-03-05T13:56:03;5.20;92.80
5617;DHT22;2830;50.656;7.568;2023-03-05T13:58:41;5.10;93.00
5617;DHT22;2830;50.656;7.568;2023-03-05T14:01:41;5.10;93.40
5617;DHT22;2830;50.656;7.568;2023-03-05T14:09:45;5.10;93.30
5617;DHT22;2830;50.656;7.568;2023-03-05T14:14:56;5.30;92.70
5617;DHT22;2830;50.656;7.568;2023-03-05T14:17:42;5.30;93.20
5617;DHT22;2830;50.656;7.568;2023-03-05T14:20:20;5.40;93.00
5617;DHT22;2830;50.656;7.568;2023-03-05T14:22:51;5.40;93.00
5617;DHT22;2830;50.656;7.568;2023-03-05T14:25:27;5.40;92.40
5617;DHT22;2830;50.656;7.568;2023-03-05T14:27:55;5.40;92.00
5617;DHT22;2830;50.656;7.568;2023-03-05T14:30:23;5.40;92.20
5617;DHT22;2830;50.656;7.568;2023-03-05T14:32:53;5.30;92.10
5617;DHT22;2830;50.656;7.568;2023-03-05T14:35:24;5.20;92.40
5617;DHT22;2830;50.656;7.568;2023-03-05T14:37:53;5.10;92.60
5617;DHT22;2830;50.656;7.568;2023-03-05T14:40:32;5.10;92.50
5617;DHT22;2830;50.656;7.568;2023-03-05T14:43:04;5.00;92.40
5617;DHT22;2830;50.656;7.568;2023-03-05T14:45:34;5.10;92.60
5617;DHT22;2830;50.656;7.568;2023-03-05T14:48:04;5.10;92.20
5617;DHT22;2830;50.656;7.568;2023-03-05T14:50:41;5.20;92.50
5617;DHT22;2830;50.656;7.568;2023-03-05T14:53:13;5.20;92.60
5617;DHT22;2830;50.656;7.568;2023-03-05T14:55:41;5.20;92.50
5617;DHT22;2830;50.656;7.568;2023-03-05T14:58:16;5.20;92.70
5617;DHT22;2830;50.656;7.568;2023-03-05T15:00:44;5.10;92.50
5617;DHT22;2830;50.656;7.568;2023-03-05T15:03:12;5.10;92.50
5617;DHT22;2830;50.656;7.568;2023-03-05T15:05:40;5.10;92.60
5617;DHT22;2830;50.656;7.568;2023-03-05T15:08:16;5.00;92.50
5617;DHT22;2830;50.656;7.568;2023-03-05T15:10:43;5.10;92.50
5617;DHT22;2830;50.656;7.568;2023-03-05T15:13:12;5.00;92.30
5617;DHT22;2830;50.656;7.568;2023-03-05T15:15:41;5.00;92.30
5617;DHT22;2830;50.656;7.568;2023-03-05T15:18:11;5.00;92.50
5617;DHT22;2830;50.656;7.568;2023-03-05T15:20:39;5.00;92.40
5617;DHT22;2830;50.656;7.568;2023-03-05T15:23:06;5.00;92.50
5617;DHT22;2830;50.656;7.568;2023-03-05T15:25:33;5.10;91.70
5617;DHT22;2830;50.656;7.568;2023-03-05T15:28:18;5.10;91.80
5617;DHT22;2830;50.656;7.568;2023-03-05T15:30:46;5.00;91.50
5617;DHT22;2830;50.656;7.568;2023-03-05T15:33:14;5.00;92.40
5617;DHT22;2830;50.656;7.568;2023-03-05T15:35:43;4.90;91.80
5617;DHT22;2830;50.656;7.568;2023-03-05T15:38:09;5.00;91.70
5617;DHT22;2830;50.656;7.568;2023-03-05T15:40:36;4.90;91.80
5617;DHT22;2830;50.656;7.568;2023-03-05T15:43:05;4.80;92.00
5617;DHT22;2830;50.656;7.568;2023-03-05T15:45:31;4.70;92.20
5617;DHT22;2830;50.656;7.568;2023-03-05T15:47:58;4.70;92.10
5617;DHT22;2830;50.656;7.568;2023-03-05T15:50:26;4.70;92.40
5617;DHT22;2830;50.656;7.568;2023-03-05T15:52:53;4.60;92.70
5617;DHT22;2830;50.656;7.568;2023-03-05T15:55:22;4.60;92.10
5617;DHT22;2830;50.656;7.568;2023-03-05T15:57:50;4.50;92.20
5617;DHT22;2830;50.656;7.568;2023-03-05T16:00:30;4.50;92.40
5617;DHT22;2830;50.656;7.568;2023-03-05T16:02:56;4.50;92.40
5617;DHT22;2830;50.656;7.568;2023-03-05T16:05:23;4.40;92.40
5617;DHT22;2830;50.656;7.568;2023-03-05T16:07:51;4.40;92.70
5617;DHT22;2830;50.656;7.568;2023-03-05T16:10:21;4.40;92.90
5617;DHT22;2830;50.656;7.568;2023-03-05T16:12:52;4.40;92.90
5617;DHT22;2830;50.656;7.568;2023-03-05T16:15:20;4.40;92.80
5617;DHT22;2830;50.656;7.568;2023-03-05T16:17:51;4.30;92.90
5617;DHT22;2830;50.656;7.568;2023-03-05T16:20:18;4.30;92.70
5617;DHT22;2830;50.656;7.568;2023-03-05T16:22:45;4.30;92.80
5617;DHT22;2830;50.656;7.568;2023-03-05T16:25:12;4.30;93.00
5617;DHT22;2830;50.656;7.568;2023-03-05T16:27:39;4.20;93.10
5617;DHT22;2830;50.656;7.568;2023-03-05T16:30:06;4.20;93.30
5617;DHT22;2830;50.656;7.568;2023-03-05T16:32:33;4.20;93.50
5617;DHT22;2830;50.656;7.568;2023-03-05T16:35:01;4.20;93.60
5617;DHT22;2830;50.656;7.568;2023-03-05T16:37:27;4.20;93.70
5617;DHT22;2830;50.656;7.568;2023-03-05T16:39:57;4.20;93.90
5617;DHT22;2830;50.656;7.568;2023-03-05T16:42:24;4.10;94.30
5617;DHT22;2830;50.656;7.568;2023-03-05T16:44:51;4.10;94.20
5617;DHT22;2830;50.656;7.568;2023-03-05T16:47:20;4.10;94.20
5617;DHT22;2830;50.656;7.568;2023-03-05T16:49:47;4.10;94.30
5617;DHT22;2830;50.656;7.568;2023-03-05T16:52:13;4.10;94.10
5617;DHT22;2830;50.656;7.568;2023-03-05T16:54:47;4.10;94.10
5617;DHT22;2830;50.656;7.568;2023-03-05T16:57:14;4.00;94.50
5617;DHT22;2830;50.656;7.568;2023-03-05T16:59:40;4.00;94.70
5617;DHT22;2830;50.656;7.568;2023-03-05T17:02:09;4.00;94.70
5617;DHT22;2830;50.656;7.568;2023-03-05T17:04:38;3.90;94.90
5617;DHT22;2830;50.656;7.568;2023-03-05T17:07:04;4.00;95.00
5617;DHT22;2830;50.656;7.568;2023-03-05T17:09:31;3.90;95.20
5617;DHT22;2830;50.656;7.568;2023-03-05T17:11:58;3.90;95.30
5617;DHT22;2830;50.656;7.568;2023-03-05T17:14:25;3.90;95.30
5617;DHT22;2830;50.656;7.568;2023-03-05T17:16:52;3.90;95.60
5617;DHT22;2830;50.656;7.568;2023-03-05T17:19:19;3.90;95.40
5617;DHT22;2830;50.656;7.568;2023-03-05T17:21:46;3.90;95.60
5617;DHT22;2830;50.656;7.568;2023-03-05T17:24:19;3.90;95.80
5617;DHT22;2830;50.656;7.568;2023-03-05T17:26:48;3.90;95.90
5617;DHT22;2830;50.656;7.568;2023-03-05T17:29:15;3.90;95.90
5617;DHT22;2830;50.656;7.568;2023-03-05T17:31:42;3.90;96.00
5617;DHT22;2830;50.656;7.568;2023-03-05T17:34:09;3.90;95.70
5617;DHT22;2830;50.656;7.568;2023-03-05T17:36:35;3.90;96.00
5617;DHT22;2830;50.656;7.568;2023-03-05T17:39:04;3.90;95.70
5617;DHT22;2830;50.656;7.568;2023-03-05T17:41:31;3.90;95.60